createdAt,value
2023-01-22T00:00:58.397Z,0.2
2023-01-22T00:02:15.489Z,0.42
2023-01-22T00:03:32.439Z,0.31
2023-01-22T00:04:49.502Z,0.22
2023-01-22T00:06:06.412Z,0.22
2023-01-22T00:07:23.411Z,0.14
2023-01-22T00:08:40.456Z,0
2023-01-22T00:09:57.409Z,0
2023-01-22T00:11:14.449Z,0
2023-01-22T00:12:31.441Z,0
2023-01-22T00:13:48.514Z,0.08
2023-01-22T00:15:05.414Z,0
2023-01-22T00:16:22.563Z,0.12
2023-01-22T00:17:39.399Z,0.07
2023-01-22T00:18:57.621Z,0
2023-01-22T00:20:14.448Z,0.34
2023-01-22T00:21:31.469Z,0.3
2023-01-22T00:22:48.421Z,0.26
2023-01-22T00:24:05.433Z,0
2023-01-22T00:25:22.486Z,0.24
2023-01-22T00:26:39.467Z,0.38
2023-01-22T00:27:56.457Z,0.13
2023-01-22T00:29:13.441Z,0
2023-01-22T00:30:30.502Z,0.22
2023-01-22T00:31:47.531Z,0.18
2023-01-22T00:33:04.423Z,0.34
2023-01-22T00:34:21.476Z,0.3
2023-01-22T00:35:38.490Z,0.41
2023-01-22T00:36:56.188Z,0.41
2023-01-22T00:38:12.451Z,0.26
2023-01-22T00:39:29.460Z,0.26
2023-01-22T00:40:46.454Z,0.49
2023-01-22T00:42:03.486Z,0.1
2023-01-22T00:43:20.461Z,0.32
2023-01-22T00:44:37.458Z,0
2023-01-22T00:45:54.469Z,0
2023-01-22T00:47:11.513Z,0
2023-01-22T00:48:28.512Z,0.14
2023-01-22T00:49:45.459Z,0
2023-01-22T00:51:03.325Z,0.2
2023-01-22T00:52:20.520Z,0
2023-01-22T00:53:37.678Z,0
2023-01-22T00:54:54.602Z,0.12
2023-01-22T00:56:11.506Z,0
2023-01-22T00:57:28.508Z,0
2023-01-22T00:58:45.483Z,0
2023-01-22T01:00:02.562Z,0
2023-01-22T01:01:19.509Z,0.17
2023-01-22T01:02:36.481Z,0
2023-01-22T01:03:53.620Z,0
2023-01-22T01:05:10.537Z,0.15
2023-01-22T01:06:27.475Z,0
2023-01-22T01:07:44.487Z,0
2023-01-22T01:09:01.485Z,0.28
2023-01-22T01:10:18.845Z,0.15
2023-01-22T01:11:35.567Z,0.11
2023-01-22T01:12:52.645Z,0.33
2023-01-22T01:14:09.478Z,0.15
2023-01-22T01:15:26.488Z,0
2023-01-22T01:16:43.542Z,0.3
2023-01-22T01:18:00.510Z,0
2023-01-22T01:19:17.865Z,0
2023-01-22T01:20:34.568Z,0
2023-01-22T01:21:51.551Z,0
2023-01-22T01:23:08.488Z,0
2023-01-22T01:24:25.680Z,0.31
2023-01-22T01:25:42.555Z,0.46
2023-01-22T01:26:59.550Z,0
2023-01-22T01:28:16.646Z,0.14
2023-01-22T01:29:33.526Z,0
2023-01-22T01:30:50.554Z,0
2023-01-22T01:32:07.540Z,0
2023-01-22T01:33:24.534Z,0
2023-01-22T01:34:41.502Z,0.18
2023-01-22T01:35:58.552Z,0
2023-01-22T01:37:15.610Z,0
2023-01-22T01:38:32.505Z,0
2023-01-22T01:39:49.547Z,0
2023-01-22T01:41:06.592Z,0
2023-01-22T01:42:23.520Z,0
2023-01-22T01:43:40.648Z,0
2023-01-22T01:44:57.568Z,0.37
2023-01-22T01:46:14.578Z,0
2023-01-22T01:47:31.554Z,0
2023-01-22T01:48:48.516Z,0.2
2023-01-22T01:50:05.555Z,0.1
2023-01-22T01:51:22.695Z,0
2023-01-22T01:52:39.569Z,0
2023-01-22T01:53:56.548Z,0.22
2023-01-22T01:55:13.543Z,0.32
2023-01-22T01:56:30.546Z,0.16
2023-01-22T01:57:47.586Z,0.22
2023-01-22T01:59:04.650Z,0.18
2023-01-22T02:00:21.586Z,0.24
2023-01-22T02:01:38.590Z,0.13
2023-01-22T02:02:55.568Z,0.08
2023-01-22T02:04:12.585Z,0.17
2023-01-22T02:05:29.544Z,0.25
2023-01-22T02:06:46.599Z,0.08
2023-01-22T02:08:03.603Z,0
2023-01-22T02:09:20.559Z,0
2023-01-22T02:10:37.660Z,0
2023-01-22T02:11:54.593Z,0
2023-01-22T02:13:11.639Z,0.22
2023-01-22T02:14:28.714Z,0
2023-01-22T02:15:45.557Z,0
2023-01-22T02:17:02.580Z,0
2023-01-22T02:18:19.639Z,0
2023-01-22T02:19:36.599Z,0
2023-01-22T02:20:53.592Z,0
2023-01-22T02:22:10.582Z,0
2023-01-22T02:23:27.606Z,0
2023-01-22T02:24:44.601Z,0
2023-01-22T02:26:01.661Z,0.14
2023-01-22T02:27:18.573Z,0
2023-01-22T02:28:35.646Z,0
2023-01-22T02:29:52.693Z,0
2023-01-22T02:31:09.635Z,0
2023-01-22T02:32:26.578Z,0
2023-01-22T02:33:43.652Z,0
2023-01-22T02:35:00.887Z,0
2023-01-22T02:36:17.699Z,0
2023-01-22T02:37:34.585Z,0
2023-01-22T02:38:51.645Z,0
2023-01-22T02:40:08.624Z,0
2023-01-22T02:41:25.600Z,0
2023-01-22T02:42:42.598Z,0.32
2023-01-22T02:43:59.617Z,0.18
2023-01-22T02:45:16.760Z,0
2023-01-22T02:46:33.612Z,0.22
2023-01-22T02:47:50.875Z,0
2023-01-22T02:49:07.641Z,0
2023-01-22T02:50:24.639Z,0
2023-01-22T02:51:41.644Z,0
2023-01-22T02:52:58.626Z,0
2023-01-22T02:54:15.664Z,0
2023-01-22T02:55:32.682Z,0
2023-01-22T02:56:49.658Z,0
2023-01-22T02:58:06.609Z,0
2023-01-22T02:59:23.888Z,0
2023-01-22T03:00:40.785Z,0
2023-01-22T03:01:57.664Z,0
2023-01-22T03:03:14.633Z,0
2023-01-22T03:04:31.714Z,0
2023-01-22T03:05:48.681Z,0
2023-01-22T03:07:05.684Z,0
2023-01-22T03:08:22.618Z,0
2023-01-22T03:09:39.661Z,0
2023-01-22T03:10:56.642Z,0
2023-01-22T03:12:13.693Z,0
2023-01-22T03:13:30.668Z,0
2023-01-22T03:14:47.665Z,0
2023-01-22T03:16:04.783Z,0
2023-01-22T03:17:21.658Z,0
2023-01-22T03:18:38.643Z,0
2023-01-22T03:19:55.678Z,0
2023-01-22T03:21:12.684Z,0
2023-01-22T03:22:29.676Z,0
2023-01-22T03:23:46.666Z,0
2023-01-22T03:25:03.749Z,0
2023-01-22T03:26:20.691Z,0
2023-01-22T03:27:37.697Z,0
2023-01-22T03:28:54.673Z,0
2023-01-22T03:30:11.696Z,0
2023-01-22T03:31:29.074Z,0
2023-01-22T03:32:45.672Z,0
2023-01-22T03:34:02.753Z,0
2023-01-22T03:35:19.696Z,0
2023-01-22T03:36:36.762Z,0
2023-01-22T03:37:53.736Z,0
2023-01-22T03:39:10.663Z,0
2023-01-22T03:40:27.782Z,0
2023-01-22T03:41:44.671Z,0
2023-01-22T03:43:01.678Z,0
2023-01-22T03:44:18.671Z,0
2023-01-22T03:45:35.826Z,0
2023-01-22T03:46:52.830Z,0
2023-01-22T03:48:09.670Z,0
2023-01-22T03:49:26.709Z,0
2023-01-22T03:50:43.759Z,0
2023-01-22T03:52:00.682Z,0
2023-01-22T03:53:17.696Z,0
2023-01-22T03:54:34.700Z,0.14
2023-01-22T03:55:51.745Z,0
2023-01-22T03:57:08.723Z,0
2023-01-22T03:58:25.816Z,0
2023-01-22T03:59:42.721Z,0
2023-01-22T04:00:59.736Z,0
2023-01-22T04:02:16.878Z,0
2023-01-22T04:03:33.726Z,0
2023-01-22T04:04:50.772Z,0
2023-01-22T04:06:09.995Z,0
2023-01-22T04:07:26.732Z,0
2023-01-22T04:08:43.709Z,0
2023-01-22T04:10:00.745Z,0
2023-01-22T04:11:17.792Z,0
2023-01-22T04:12:34.725Z,0.2
2023-01-22T04:13:51.790Z,0
2023-01-22T04:15:08.737Z,0.23
2023-01-22T04:16:25.841Z,0.22
2023-01-22T04:17:48.387Z,0.19
2023-01-22T04:18:59.837Z,0
2023-01-22T04:20:16.970Z,0
2023-01-22T04:21:33.829Z,0.07
2023-01-22T04:22:50.783Z,0
2023-01-22T04:24:07.777Z,0
2023-01-22T04:25:24.742Z,0
2023-01-22T04:26:41.752Z,0
2023-01-22T04:27:58.784Z,0
2023-01-22T04:29:15.758Z,0.29
2023-01-22T04:30:32.836Z,0
2023-01-22T04:31:49.873Z,0.05
2023-01-22T04:33:06.775Z,0
2023-01-22T04:34:23.853Z,0.28
2023-01-22T04:35:40.778Z,0
2023-01-22T04:36:57.761Z,0
2023-01-22T04:38:14.763Z,0
2023-01-22T04:39:31.740Z,0
2023-01-22T04:40:48.803Z,0.06
2023-01-22T04:42:05.759Z,0
2023-01-22T04:43:22.739Z,0.1
2023-01-22T04:44:39.766Z,0
2023-01-22T04:45:56.841Z,0.14
2023-01-22T04:47:13.770Z,0.04
2023-01-22T04:48:30.798Z,0
2023-01-22T04:49:48.093Z,0
2023-01-22T04:51:04.840Z,0
2023-01-22T04:52:21.756Z,0
2023-01-22T04:53:38.803Z,0
2023-01-22T04:54:55.841Z,0.22
2023-01-22T04:56:12.794Z,0.38
2023-01-22T04:57:29.783Z,0.08
2023-01-22T04:58:46.799Z,0.51
2023-01-22T05:00:03.809Z,0.29
2023-01-22T05:01:20.868Z,0.18
2023-01-22T05:02:37.821Z,0
2023-01-22T05:03:54.834Z,0
2023-01-22T05:05:11.954Z,0.14
2023-01-22T05:06:28.956Z,0.14
2023-01-22T05:07:45.802Z,0.28
2023-01-22T05:09:02.818Z,0.18
2023-01-22T05:10:20.111Z,0
2023-01-22T05:11:36.813Z,0.18
2023-01-22T05:12:53.799Z,0.29
2023-01-22T05:14:10.803Z,0.13
2023-01-22T05:15:27.922Z,0.46
2023-01-22T05:16:44.850Z,0.22
2023-01-22T05:18:01.785Z,0.2
2023-01-22T05:19:18.798Z,0.19
2023-01-22T05:20:35.988Z,0
2023-01-22T05:21:52.839Z,0.69
2023-01-22T05:23:09.810Z,0
2023-01-22T05:24:26.813Z,0.19
2023-01-22T05:25:43.823Z,0.15
2023-01-22T05:27:00.833Z,0.29
2023-01-22T05:28:17.844Z,0.17
2023-01-22T05:29:34.869Z,0.4
2023-01-22T05:30:51.948Z,0.24
2023-01-22T05:32:08.858Z,0.35
2023-01-22T05:33:26.479Z,0.31
2023-01-22T05:34:43.813Z,0.3
2023-01-22T05:36:00.942Z,0.27
2023-01-22T05:37:17.846Z,0.16
2023-01-22T05:38:34.860Z,0.37
2023-01-22T05:39:51.845Z,0.19
2023-01-22T05:41:08.851Z,0
2023-01-22T05:42:25.859Z,0
2023-01-22T05:43:42.866Z,0
2023-01-22T05:44:59.840Z,0
2023-01-22T05:46:17.008Z,0
2023-01-22T05:47:33.847Z,0
2023-01-22T05:48:50.843Z,0
2023-01-22T05:50:07.841Z,0
2023-01-22T05:51:25.145Z,0
2023-01-22T05:52:41.834Z,0
2023-01-22T05:53:58.865Z,0
2023-01-22T05:55:15.889Z,0
2023-01-22T05:56:32.912Z,0
2023-01-22T05:57:49.926Z,0
2023-01-22T05:59:06.845Z,0
2023-01-22T06:00:23.894Z,0
2023-01-22T06:01:40.874Z,0
2023-01-22T06:02:58.014Z,0
2023-01-22T06:04:14.851Z,0
2023-01-22T06:05:31.882Z,0
2023-01-22T06:06:49.013Z,0
2023-01-22T06:08:05.861Z,0
2023-01-22T06:09:22.860Z,0
2023-01-22T06:10:39.880Z,0
2023-01-22T06:11:56.928Z,0
2023-01-22T06:13:13.857Z,0
2023-01-22T06:14:30.868Z,0
2023-01-22T06:15:47.913Z,0
2023-01-22T06:17:04.920Z,0
2023-01-22T06:18:21.922Z,0
2023-01-22T06:19:38.875Z,0
2023-01-22T06:20:56.402Z,0
2023-01-22T06:22:13.023Z,0
2023-01-22T06:23:29.877Z,0
2023-01-22T06:24:46.897Z,0
2023-01-22T06:26:03.932Z,0
2023-01-22T06:27:20.922Z,0.31
2023-01-22T06:28:37.905Z,0.51
2023-01-22T06:29:54.893Z,0.2
2023-01-22T06:31:12.040Z,0.17
2023-01-22T06:32:28.914Z,0.18
2023-01-22T06:33:45.883Z,0.15
2023-01-22T06:35:02.904Z,0
2023-01-22T06:36:19.904Z,0
2023-01-22T06:37:37.126Z,0
2023-01-22T06:38:54.015Z,0
2023-01-22T06:40:10.901Z,0.16
2023-01-22T06:41:27.927Z,0.29
2023-01-22T06:42:44.942Z,0.26
2023-01-22T06:44:01.928Z,0.45
2023-01-22T06:45:18.919Z,0.59
2023-01-22T06:46:35.984Z,0.34
2023-01-22T06:47:52.914Z,0.19
2023-01-22T06:49:09.953Z,0.23
2023-01-22T06:50:26.926Z,0
2023-01-22T06:51:43.996Z,0.39
2023-01-22T06:53:01.093Z,0.33
2023-01-22T06:54:17.939Z,0.34
2023-01-22T06:55:34.944Z,0.45
2023-01-22T06:56:51.944Z,0.21
2023-01-22T06:58:08.925Z,0.14
2023-01-22T06:59:25.924Z,0
2023-01-22T07:00:42.923Z,0.33
2023-01-22T07:02:00.041Z,0.22
2023-01-22T07:03:17.064Z,0.1
2023-01-22T07:04:33.947Z,0.21
2023-01-22T07:05:50.955Z,0.19
2023-01-22T07:07:07.962Z,0.2
2023-01-22T07:08:25.091Z,0.14
2023-01-22T07:09:41.942Z,0
2023-01-22T07:10:58.945Z,0
2023-01-22T07:12:15.952Z,0.13
2023-01-22T07:13:33.382Z,0
2023-01-22T07:14:49.967Z,0.17
2023-01-22T07:16:07.002Z,0.27
2023-01-22T07:17:24.061Z,0
2023-01-22T07:18:40.993Z,0
2023-01-22T07:19:57.952Z,0
2023-01-22T07:21:14.998Z,0.07
2023-01-22T07:22:31.961Z,0
2023-01-22T07:23:49.127Z,0
2023-01-22T07:25:06.003Z,0.33
2023-01-22T07:26:22.991Z,0.29
2023-01-22T07:27:40.119Z,0.09
2023-01-22T07:28:56.987Z,0.11
2023-01-22T07:30:13.989Z,0
2023-01-22T07:31:31.052Z,0
2023-01-22T07:32:48.037Z,0.35
2023-01-22T07:34:04.973Z,0.22
2023-01-22T07:35:21.985Z,0.24
2023-01-22T07:36:38.977Z,0.22
2023-01-22T07:37:55.991Z,0.15
2023-01-22T07:39:13.133Z,0
2023-01-22T07:40:30.001Z,0
2023-01-22T07:41:46.997Z,0.04
2023-01-22T07:43:04.056Z,0.25
2023-01-22T07:44:21.046Z,0.2
2023-01-22T07:45:38.011Z,0.22
2023-01-22T07:46:55.266Z,0.09
2023-01-22T07:48:12.014Z,0
2023-01-22T07:49:28.992Z,0
2023-01-22T07:50:46.038Z,0.25
2023-01-22T07:52:03.050Z,0
2023-01-22T07:53:20.045Z,0.06
2023-01-22T07:54:42.997Z,0.18
2023-01-22T07:55:54.113Z,0.28
2023-01-22T07:57:10.999Z,0.44
2023-01-22T07:58:28.280Z,0
2023-01-22T07:59:45.061Z,0
2023-01-22T08:01:02.056Z,0.24
2023-01-22T08:02:19.092Z,0.19
2023-01-22T08:03:36.101Z,0.18
2023-01-22T08:04:53.014Z,0
2023-01-22T08:06:10.036Z,0.61
2023-01-22T08:07:27.880Z,0.27
2023-01-22T08:08:44.047Z,0.2
2023-01-22T08:10:01.073Z,0
2023-01-22T08:11:18.161Z,0.35
2023-01-22T08:12:35.038Z,0.26
2023-01-22T08:13:52.077Z,0.15
2023-01-22T08:15:09.051Z,0.16
2023-01-22T08:16:26.042Z,0.4
2023-01-22T08:17:43.023Z,0.19
2023-01-22T08:19:00.100Z,0.22
2023-01-22T08:20:17.409Z,0.15
2023-01-22T08:21:34.085Z,0
2023-01-22T08:22:51.050Z,0
2023-01-22T08:24:08.057Z,0
2023-01-22T08:25:25.078Z,0.27
2023-01-22T08:26:42.163Z,0.17
2023-01-22T08:27:59.107Z,0
2023-01-22T08:29:16.030Z,0
2023-01-22T08:30:38.422Z,0
2023-01-22T08:31:50.171Z,0.13
2023-01-22T08:33:07.093Z,0.26
2023-01-22T08:34:24.064Z,0
2023-01-22T08:35:41.144Z,0.2
2023-01-22T08:36:58.059Z,0
2023-01-22T08:38:15.175Z,0.34
2023-01-22T08:39:32.113Z,0.21
2023-01-22T08:40:49.052Z,0.13
2023-01-22T08:42:06.170Z,0.16
2023-01-22T08:43:23.054Z,0
2023-01-22T08:44:40.113Z,0
2023-01-22T08:45:57.183Z,0.26
2023-01-22T08:47:14.051Z,0.22
2023-01-22T08:48:31.091Z,0.26
2023-01-22T08:49:48.128Z,0.3
2023-01-22T08:51:05.108Z,0.25
2023-01-22T08:52:22.092Z,0.44
2023-01-22T08:53:39.070Z,0.15
2023-01-22T08:54:56.099Z,0
2023-01-22T08:56:13.120Z,0.22
2023-01-22T08:57:30.237Z,0.21
2023-01-22T08:58:47.082Z,0.23
2023-01-22T09:00:04.137Z,0.34
2023-01-22T09:01:21.367Z,0
2023-01-22T09:02:38.104Z,0
2023-01-22T09:03:57.811Z,0
2023-01-22T09:05:15.205Z,0
2023-01-22T09:06:32.155Z,0
2023-01-22T09:07:49.168Z,0
2023-01-22T09:09:06.152Z,0.2
2023-01-22T09:10:23.476Z,0
2023-01-22T09:11:40.333Z,0.22
2023-01-22T09:12:57.375Z,0.1
2023-01-22T09:14:14.145Z,0.19
2023-01-22T09:15:31.276Z,0.09
2023-01-22T09:16:48.129Z,0
2023-01-22T09:18:05.263Z,0
2023-01-22T09:19:22.131Z,0
2023-01-22T09:20:39.238Z,0.12
2023-01-22T09:21:56.111Z,0.18
2023-01-22T09:23:15.400Z,0
2023-01-22T09:24:30.165Z,0
2023-01-22T09:25:47.231Z,0.23
2023-01-22T09:27:04.137Z,0
2023-01-22T09:28:21.364Z,0
2023-01-22T09:29:38.187Z,0
2023-01-22T09:30:55.188Z,0
2023-01-22T09:32:12.137Z,0
2023-01-22T09:33:29.188Z,0
2023-01-22T09:34:46.131Z,0
2023-01-22T09:36:03.149Z,0
2023-01-22T09:37:20.244Z,0.16
2023-01-22T09:38:37.159Z,0
2023-01-22T09:39:54.148Z,0
2023-01-22T09:41:11.177Z,0.19
2023-01-22T09:42:28.178Z,0
2023-01-22T09:43:45.274Z,0
2023-01-22T09:45:02.189Z,0
2023-01-22T09:46:19.206Z,0
2023-01-22T09:47:36.196Z,0
2023-01-22T09:48:53.133Z,0
2023-01-22T09:50:10.179Z,0
2023-01-22T09:51:27.177Z,0.14
2023-01-22T09:52:44.178Z,0
2023-01-22T09:54:01.168Z,0
2023-01-22T09:55:18.203Z,0.24
2023-01-22T09:56:35.173Z,0
2023-01-22T09:57:52.151Z,0.17
2023-01-22T09:59:09.288Z,0
2023-01-22T10:00:26.177Z,0
2023-01-22T10:01:43.212Z,0
2023-01-22T10:03:00.220Z,0
2023-01-22T10:04:17.181Z,0.11
2023-01-22T10:05:34.179Z,0
2023-01-22T10:06:51.176Z,0.16
2023-01-22T10:08:08.173Z,0
2023-01-22T10:09:25.188Z,0
2023-01-22T10:10:42.261Z,0
2023-01-22T10:11:59.269Z,0.19
2023-01-22T10:13:16.158Z,0.39
2023-01-22T10:14:33.293Z,0.15
2023-01-22T10:15:50.298Z,0
2023-01-22T10:17:07.204Z,0
2023-01-22T10:18:24.718Z,0
2023-01-22T10:19:42.197Z,0.2
2023-01-22T10:20:59.481Z,0.3
2023-01-22T10:22:16.185Z,0.16
2023-01-22T10:23:33.267Z,0
2023-01-22T10:24:50.210Z,0.24
2023-01-22T10:26:07.264Z,0.32
2023-01-22T10:27:24.294Z,0.16
2023-01-22T10:28:41.262Z,0.1
2023-01-22T10:29:58.408Z,0
2023-01-22T10:31:15.388Z,0
2023-01-22T10:32:32.221Z,0
2023-01-22T10:33:49.239Z,0
2023-01-22T10:35:06.275Z,0.34
2023-01-22T10:36:23.241Z,0.2
2023-01-22T10:37:40.230Z,0.13
2023-01-22T10:38:57.220Z,0.17
2023-01-22T10:40:14.301Z,0.3
2023-01-22T10:41:31.254Z,0
2023-01-22T10:42:48.294Z,0.38
2023-01-22T10:44:05.246Z,0.16
2023-01-22T10:45:22.547Z,0.36
2023-01-22T10:46:39.304Z,0.27
2023-01-22T10:47:56.223Z,0.07
2023-01-22T10:49:13.599Z,0.16
2023-01-22T10:50:31.343Z,0.25
2023-01-22T10:51:48.258Z,0.24
2023-01-22T10:53:05.328Z,0.27
2023-01-22T10:54:22.243Z,0.28
2023-01-22T10:55:39.246Z,0.52
2023-01-22T10:56:56.289Z,0.25
2023-01-22T10:58:13.273Z,0.14
2023-01-22T10:59:30.245Z,0.21
2023-01-22T11:00:52.146Z,0.22
2023-01-22T11:02:05.004Z,0.27
2023-01-22T11:03:22.942Z,0.27
2023-01-22T11:04:40.287Z,0.46
2023-01-22T11:05:57.313Z,0
2023-01-22T11:07:14.264Z,0.36
2023-01-22T11:08:31.421Z,0.31
2023-01-22T11:09:48.276Z,0.11
2023-01-22T11:11:05.283Z,0.25
2023-01-22T11:12:22.313Z,0.33
2023-01-22T11:13:39.391Z,0.28
2023-01-22T11:14:56.271Z,0.75
2023-01-22T11:16:13.461Z,0.48
2023-01-22T11:17:30.432Z,0.36
2023-01-22T11:18:47.308Z,0.51
2023-01-22T11:20:04.377Z,0.45
2023-01-22T11:21:21.342Z,0.6
2023-01-22T11:22:38.378Z,0.95
2023-01-22T11:23:55.291Z,0.72
2023-01-22T11:25:12.287Z,0.61
2023-01-22T11:26:29.299Z,0.44
2023-01-22T11:27:46.349Z,0.45
2023-01-22T11:29:03.276Z,0.43
2023-01-22T11:30:21.367Z,0.48
2023-01-22T11:31:37.534Z,0.22
2023-01-22T11:32:54.318Z,0.31
2023-01-22T11:34:11.304Z,0.13
2023-01-22T11:35:28.393Z,0.13
2023-01-22T11:36:45.357Z,0.51
2023-01-22T11:38:02.362Z,0.6
2023-01-22T11:39:19.355Z,0.36
2023-01-22T11:40:36.304Z,0.28
2023-01-22T11:41:53.295Z,0.21
2023-01-22T11:43:10.295Z,0.22
2023-01-22T11:44:27.309Z,0
2023-01-22T11:45:44.315Z,0
2023-01-22T11:47:01.437Z,0.27
2023-01-22T11:48:18.364Z,0.26
2023-01-22T11:49:35.363Z,0.33
2023-01-22T11:50:52.378Z,0.15
2023-01-22T11:52:09.307Z,0
2023-01-22T11:53:26.320Z,0
2023-01-22T11:54:43.374Z,0
2023-01-22T11:56:00.338Z,0
2023-01-22T11:57:17.343Z,0
2023-01-22T11:58:34.338Z,0
2023-01-22T11:59:51.654Z,0
2023-01-22T12:01:08.402Z,0
2023-01-22T12:02:25.687Z,0
2023-01-22T12:03:42.360Z,0
2023-01-22T12:04:59.387Z,0
2023-01-22T12:06:16.352Z,0
2023-01-22T12:07:33.342Z,0
2023-01-22T12:08:50.368Z,0
2023-01-22T12:10:07.448Z,0
2023-01-22T12:11:24.480Z,0
2023-01-22T12:12:41.366Z,0
2023-01-22T12:13:58.532Z,0
2023-01-22T12:15:15.395Z,0
2023-01-22T12:16:32.402Z,0
2023-01-22T12:17:49.515Z,0
2023-01-22T12:19:06.390Z,0
2023-01-22T12:20:23.450Z,0
2023-01-22T12:21:40.697Z,0.27
2023-01-22T12:22:57.383Z,0.41
2023-01-22T12:24:14.400Z,0.16
2023-01-22T12:25:31.371Z,0.36
2023-01-22T12:26:48.431Z,0.28
2023-01-22T12:28:05.410Z,0.07
2023-01-22T12:29:22.363Z,0.2
2023-01-22T12:30:39.405Z,0.33
2023-01-22T12:31:56.415Z,0.3
2023-01-22T12:33:13.492Z,0
2023-01-22T12:34:30.454Z,0.24
2023-01-22T12:35:47.513Z,0.12
2023-01-22T12:37:04.479Z,0.37
2023-01-22T12:38:21.383Z,0.32
2023-01-22T12:39:38.391Z,0.15
2023-01-22T12:40:55.402Z,0.23
2023-01-22T12:42:12.429Z,0.42
2023-01-22T12:43:29.375Z,0.06
2023-01-22T12:44:46.398Z,0.36
2023-01-22T12:46:03.414Z,0.13
2023-01-22T12:47:20.439Z,0.14
2023-01-22T12:48:37.567Z,0
2023-01-22T12:49:54.407Z,0.18
2023-01-22T12:51:11.445Z,0.45
2023-01-22T12:52:28.425Z,0.11
2023-01-22T12:53:45.394Z,0.16
2023-01-22T12:55:02.435Z,0.29
2023-01-22T12:56:19.462Z,0.36
2023-01-22T12:57:36.445Z,0.22
2023-01-22T12:58:53.386Z,0
2023-01-22T13:00:10.492Z,0.11
2023-01-22T13:01:27.417Z,0.16
2023-01-22T13:02:44.498Z,0.29
2023-01-22T13:04:01.612Z,0.28
2023-01-22T13:05:18.403Z,0.11
2023-01-22T13:06:35.452Z,0.28
2023-01-22T13:07:52.446Z,0.38
2023-01-22T13:09:09.479Z,0.39
2023-01-22T13:10:26.450Z,0.3
2023-01-22T13:11:43.427Z,0.42
2023-01-22T13:13:00.445Z,0.3
2023-01-22T13:14:17.565Z,0.26
2023-01-22T13:15:34.480Z,0.16
2023-01-22T13:16:51.424Z,0.22
2023-01-22T13:18:08.499Z,0.27
2023-01-22T13:19:25.563Z,0.51
2023-01-22T13:20:42.480Z,0.66
2023-01-22T13:21:59.501Z,0.3
2023-01-22T13:23:16.918Z,0.22
2023-01-22T13:24:33.488Z,0.13
2023-01-22T13:25:50.457Z,0.21
2023-01-22T13:27:07.428Z,0.09
2023-01-22T13:28:24.514Z,0.29
2023-01-22T13:29:41.464Z,0.37
2023-01-22T13:30:58.603Z,0.36
2023-01-22T13:32:15.474Z,0.44
2023-01-22T13:33:32.473Z,0.37
2023-01-22T13:34:49.658Z,0.38
2023-01-22T13:36:06.451Z,0.59
2023-01-22T13:37:23.439Z,0.48
2023-01-22T13:38:40.477Z,0.32
2023-01-22T13:39:57.503Z,0.44
2023-01-22T13:41:14.449Z,0.52
2023-01-22T13:42:31.516Z,0.34
2023-01-22T13:43:48.472Z,0.46
2023-01-22T13:45:05.604Z,0.3
2023-01-22T13:46:22.575Z,0.41
2023-01-22T13:47:39.555Z,0.38
2023-01-22T13:48:56.489Z,0.37
2023-01-22T13:50:13.602Z,0.37
2023-01-22T13:51:30.526Z,0.44
2023-01-22T13:52:47.570Z,0.5
2023-01-22T13:54:04.482Z,0.4
2023-01-22T13:55:21.545Z,0.83
2023-01-22T13:56:38.538Z,0.6
2023-01-22T13:57:55.607Z,0.33
2023-01-22T13:59:12.486Z,0.32
2023-01-22T14:00:29.707Z,0.45
2023-01-22T14:01:46.567Z,0.17
2023-01-22T14:03:03.510Z,0.74
2023-01-22T14:04:20.519Z,0.25
2023-01-22T14:05:37.716Z,0.52
2023-01-22T14:06:54.480Z,0.49
2023-01-22T14:08:11.579Z,0.85
2023-01-22T14:09:28.491Z,0.56
2023-01-22T14:10:45.500Z,0.4
2023-01-22T14:12:02.540Z,0.54
2023-01-22T14:13:19.543Z,0.3
2023-01-22T14:14:36.570Z,0.49
2023-01-22T14:15:53.600Z,0.29
2023-01-22T14:17:10.534Z,0.51
2023-01-22T14:18:27.539Z,0.59
2023-01-22T14:19:44.522Z,0.68
2023-01-22T14:21:01.668Z,0.54
2023-01-22T14:22:18.519Z,0.37
2023-01-22T14:23:35.921Z,0.6
2023-01-22T14:24:52.653Z,0.57
2023-01-22T14:26:09.542Z,0.82
2023-01-22T14:27:26.536Z,0.71
2023-01-22T14:28:43.550Z,0.97
2023-01-22T14:30:00.562Z,0.81
2023-01-22T14:31:17.703Z,0.32
2023-01-22T14:32:34.569Z,0.41
2023-01-22T14:33:51.609Z,0.49
2023-01-22T14:35:08.573Z,0.39
2023-01-22T14:36:25.634Z,0.32
2023-01-22T14:37:42.553Z,0.48
2023-01-22T14:38:59.586Z,0.47
2023-01-22T14:40:16.835Z,0.47
2023-01-22T14:41:33.546Z,0.57
2023-01-22T14:42:50.564Z,0.29
2023-01-22T14:44:07.604Z,0.51
2023-01-22T14:45:24.588Z,0.59
2023-01-22T14:46:41.607Z,0.51
2023-01-22T14:47:58.606Z,0.61
2023-01-22T14:49:15.587Z,0.45
2023-01-22T14:50:32.608Z,0.54
2023-01-22T14:51:49.909Z,0.56
2023-01-22T14:53:06.597Z,0.51
2023-01-22T14:54:23.566Z,0.36
2023-01-22T14:55:40.603Z,0.34
2023-01-22T14:56:57.588Z,0.54
2023-01-22T14:58:14.580Z,0.21
2023-01-22T14:59:31.592Z,0.33
2023-01-22T15:00:48.644Z,0.24
2023-01-22T15:02:05.685Z,0.58
2023-01-22T15:03:22.602Z,0.35
2023-01-22T15:04:39.610Z,0.38
2023-01-22T15:05:56.553Z,0.44
2023-01-22T15:07:13.775Z,0.54
2023-01-22T15:08:30.778Z,0.31
2023-01-22T15:09:47.606Z,0.68
2023-01-22T15:11:05.019Z,0.63
2023-01-22T15:12:21.634Z,0.28
2023-01-22T15:13:38.638Z,0.38
2023-01-22T15:14:55.573Z,0.36
2023-01-22T15:16:12.721Z,0.59
2023-01-22T15:17:29.654Z,0.89
2023-01-22T15:18:46.637Z,0.42
2023-01-22T15:20:03.664Z,0.26
2023-01-22T15:21:20.636Z,0.59
2023-01-22T15:22:37.782Z,0.5
2023-01-22T15:23:54.608Z,0.44
2023-01-22T15:25:11.648Z,0.54
2023-01-22T15:26:28.663Z,0.45
2023-01-22T15:27:45.581Z,0.41
2023-01-22T15:29:02.611Z,0.24
2023-01-22T15:30:19.892Z,0.32
2023-01-22T15:31:36.710Z,0.33
2023-01-22T15:32:53.690Z,0.39
2023-01-22T15:34:10.627Z,0.35
2023-01-22T15:35:27.631Z,0.07
2023-01-22T15:36:44.698Z,0.25
2023-01-22T15:38:01.753Z,0.41
2023-01-22T15:39:20.169Z,0.4
2023-01-22T15:40:37.622Z,0.4
2023-01-22T15:41:54.705Z,0.41
2023-01-22T15:43:11.612Z,0.32
2023-01-22T15:44:28.614Z,0.49
2023-01-22T15:45:45.691Z,0.31
2023-01-22T15:47:02.885Z,0.43
2023-01-22T15:48:20.244Z,0.48
2023-01-22T15:49:37.751Z,0.47
2023-01-22T15:50:54.633Z,0.16
2023-01-22T15:52:11.695Z,0.36
2023-01-22T15:53:28.785Z,0.28
2023-01-22T15:54:45.665Z,0.37
2023-01-22T15:56:02.655Z,0.48
2023-01-22T15:57:19.646Z,0.42
2023-01-22T15:58:36.906Z,0.43
2023-01-22T15:59:53.764Z,0.25
2023-01-22T16:01:10.734Z,0.35
2023-01-22T16:02:27.823Z,0.34
2023-01-22T16:03:44.752Z,0.53
2023-01-22T16:05:01.682Z,0.31
2023-01-22T16:06:18.659Z,0.29
2023-01-22T16:07:35.739Z,0.48
2023-01-22T16:08:52.811Z,0.25
2023-01-22T16:10:09.664Z,0.32
2023-01-22T16:11:26.684Z,0.32
2023-01-22T16:12:43.687Z,0.21
2023-01-22T16:14:00.695Z,0.34
2023-01-22T16:15:17.666Z,0.19
2023-01-22T16:16:34.765Z,0.19
2023-01-22T16:17:51.720Z,0.14
2023-01-22T16:19:08.716Z,0.19
2023-01-22T16:20:25.690Z,0.29
2023-01-22T16:21:43.180Z,0.32
2023-01-22T16:22:59.746Z,0.21
2023-01-22T16:24:34.076Z,0.26
2023-01-22T16:25:50.781Z,0.41
2023-01-22T16:27:07.720Z,0.21
2023-01-22T16:28:24.707Z,0.24
2023-01-22T16:29:42.554Z,0.15
2023-01-22T16:31:05.451Z,0.22
2023-01-22T16:32:22.722Z,0.16
2023-01-22T16:33:39.675Z,0.15
2023-01-22T16:34:56.761Z,0.07
2023-01-22T16:36:13.696Z,0.41
2023-01-22T16:37:30.741Z,0.27
2023-01-22T16:38:47.702Z,0.19
2023-01-22T16:40:05.842Z,0.27
2023-01-22T16:41:24.828Z,0.46
2023-01-22T16:42:39.699Z,0.36
2023-01-22T16:43:56.709Z,0.13
2023-01-22T16:45:13.769Z,0.23
2023-01-22T16:46:30.789Z,0.28
2023-01-22T16:47:47.984Z,0.25
2023-01-22T16:49:04.718Z,0.11
2023-01-22T16:50:21.721Z,0.3
2023-01-22T16:51:38.720Z,0.3
2023-01-22T16:52:55.762Z,0.22
2023-01-22T16:54:12.818Z,0.2
2023-01-22T16:55:29.976Z,0
2023-01-22T16:56:46.883Z,0.11
2023-01-22T16:58:04.010Z,0.17
2023-01-22T16:59:20.889Z,0.12
2023-01-22T17:00:37.868Z,0.04
2023-01-22T17:01:54.780Z,0.23
2023-01-22T17:03:11.799Z,0
2023-01-22T17:04:28.740Z,0.12
2023-01-22T17:05:45.803Z,0.24
2023-01-22T17:07:04.550Z,0.31
2023-01-22T17:08:19.798Z,0.25
2023-01-22T17:09:36.838Z,0.27
2023-01-22T17:10:53.875Z,0.11
2023-01-22T17:12:10.748Z,0.15
2023-01-22T17:13:27.998Z,0.13
2023-01-22T17:14:44.916Z,0.26
2023-01-22T17:16:01.847Z,0.21
2023-01-22T17:17:18.741Z,0.12
2023-01-22T17:18:35.833Z,0.25
2023-01-22T17:19:52.786Z,0.26
2023-01-22T17:21:09.749Z,0.25
2023-01-22T17:22:26.749Z,0.36
2023-01-22T17:23:44.679Z,0.23
2023-01-22T17:25:01.998Z,0.04
2023-01-22T17:26:19.080Z,0.4
2023-01-22T17:27:35.753Z,0.19
2023-01-22T17:28:52.831Z,0.13
2023-01-22T17:30:09.746Z,0.08
2023-01-22T17:31:26.940Z,0.23
2023-01-22T17:32:43.772Z,0
2023-01-22T17:34:00.815Z,0.1
2023-01-22T17:35:18.222Z,0.06
2023-01-22T17:36:34.787Z,0.08
2023-01-22T17:37:51.765Z,0.23
2023-01-22T17:39:08.774Z,0.18
2023-01-22T17:40:25.900Z,0.22
2023-01-22T17:41:42.909Z,0.34
2023-01-22T17:42:59.820Z,0.19
2023-01-22T17:44:16.823Z,0.25
2023-01-22T17:45:34.350Z,0.09
2023-01-22T17:46:51.939Z,0
2023-01-22T17:48:08.836Z,0.17